KHST/HST METAR and TAF weather

Enter ICAO airport designator
Station Type Date Time Source
KHST METAR 2019/04/22 19:56 UTC NOAA

KHST 221956Z AUTO 07012KT 10SM CLR 26/14 A3009 RMK AO2 SLP193 T02570142


Station Type Date Time Source
KHST Decoded METAR 2019/04/22 19:56 UTC NOAA

Homestead Air Force Base, FL, United States (KHST) 25-29N 080-23W
Apr 22, 2019 - 03:56 PM EDT / 2019.04.22 1956 UTC
Wind: from the ENE (070 degrees) at 14 MPH (12 KT):0
Visibility: 10 mile(s):0
Sky conditions: clear
Temperature: 78.3 F (25.7 C)
Dew Point: 57.6 F (14.2 C)
Relative Humidity: 49%
Pressure (altimeter): 30.09 in. Hg (1018 hPa)
ob: KHST 221956Z AUTO 07012KT 10SM CLR 26/14 A3009 RMK AO2 SLP193 T02570142
cycle: 20

Station Type Date Time Source
KHST TAF 2019/04/22 16:10 UTC NOAA

TAF KHST 221600Z 2216/2322 07009KT 9999 SKC QNH3005INS
BECMG 2314/2315 05012KT 9999 FEW050 QNH3007INS TX29/2218Z TN16/2311Z

Example: see airport list